Time;durP1;ratioP1;P1;durP2;ratioP2;P2;SDS_P1;SDS_P2;PMS_P1;PMS_P2;Temp;Humidity;BMP_temperature;BMP_pressure;BME280_temperature;BME280_humidity;BME280_pressure;Samples;Min_cycle;Max_cycle;Signal;HPM_P1;HPM_P2
2022/11/25 00:02:22;;;;;;;10.40;5.00;;;;;;;9.10;65.13;100236.38;5054051;28;20025;-76
2022/11/25 00:04:47;;;;;;;8.95;5.53;;;;;;;9.13;65.28;100228.06;5055684;28;20124;-76
2022/11/25 00:07:13;;;;;;;9.60;5.38;;;;;;;9.12;64.94;100237.09;5070515;28;20123;-75
2022/11/25 00:09:38;;;;;;;7.57;5.25;;;;;;;9.07;65.20;100240.16;5055844;28;20028;-75
2022/11/25 00:12:04;;;;;;;8.48;5.63;;;;;;;9.11;65.33;100236.22;5055328;28;20112;-75
2022/11/25 00:14:29;;;;;;;9.70;5.75;;;;;;;9.14;65.49;100237.84;5052949;28;20498;-75
2022/11/25 00:16:55;;;;;;;10.98;5.90;;;;;;;9.02;65.61;100214.69;5052971;28;20052;-75
2022/11/25 00:19:20;;;;;;;7.25;5.03;;;;;;;9.20;65.11;100237.34;5052984;28;20023;-75
2022/11/25 00:21:45;;;;;;;8.23;4.82;;;;;;;9.22;65.09;100246.09;5052625;28;20532;-75
2022/11/25 00:24:13;;;;;;;8.00;6.07;;;;;;;8.91;64.79;100187.88;5052767;28;20113;-75
2022/11/25 00:26:39;;;;;;;11.65;5.57;;;;;;;9.19;65.11;100235.63;5051619;28;20033;-75
2022/11/25 00:29:07;;;;;;;7.38;4.97;;;;;;;9.13;65.09;100238.81;5050495;28;20106;-76
2022/11/25 00:31:34;;;;;;;8.85;5.72;;;;;;;9.08;65.47;100232.97;5053628;28;20048;-76
2022/11/25 00:34:00;;;;;;;7.70;5.32;;;;;;;9.02;65.52;100238.84;5059199;28;20029;-75
2022/11/25 00:36:29;;;;;;;6.60;4.63;;;;;;;9.00;65.73;100235.41;5052827;28;20021;-75
2022/11/25 00:38:59;;;;;;;10.77;5.07;;;;;;;9.02;65.97;100231.63;5052642;28;20113;-75
2022/11/25 00:47:04;;;;;;;7.90;5.38;;;;;;;8.93;66.42;100253.00;5052243;28;20040;-74
2022/11/25 00:49:29;;;;;;;9.10;5.07;;;;;;;8.71;66.64;100209.09;5061143;28;20045;-77
2022/11/25 00:51:55;;;;;;;9.20;5.50;;;;;;;8.90;66.64;100246.03;5052539;28;20029;-75
2022/11/25 00:54:20;;;;;;;9.98;6.30;;;;;;;8.88;66.65;100257.84;5052118;28;20462;-75
2022/11/25 00:56:46;;;;;;;9.63;5.53;;;;;;;8.94;66.61;100260.91;5053874;28;20518;-74
2022/11/25 00:59:11;;;;;;;14.55;6.88;;;;;;;9.00;66.34;100256.88;5054650;28;20060;-76
2022/11/25 01:01:37;;;;;;;10.52;6.35;;;;;;;8.99;66.21;100261.38;5052287;28;20017;-75
2022/11/25 01:04:04;;;;;;;10.20;5.57;;;;;;;8.92;66.23;100270.03;5050716;28;20418;-75
2022/11/25 01:06:30;;;;;;;7.53;5.32;;;;;;;8.92;66.52;100272.72;5052182;28;20033;-75
2022/11/25 01:08:55;;;;;;;10.40;5.53;;;;;;;8.89;66.31;100254.19;5051727;28;20044;-75
2022/11/25 01:11:22;;;;;;;8.10;5.43;;;;;;;8.87;66.87;100258.84;5051534;28;20530;-74
2022/11/25 01:13:48;;;;;;;6.82;5.40;;;;;;;8.63;67.00;100218.75;5056794;28;20051;-75
2022/11/25 01:16:17;;;;;;;13.50;6.20;;;;;;;8.67;66.83;100223.75;5059489;28;20526;-76
2022/11/25 01:18:43;;;;;;;9.45;6.43;;;;;;;8.77;66.35;100238.09;5057740;28;20439;-75
2022/11/25 01:21:17;;;;;;;10.13;6.30;;;;;;;8.97;66.45;100268.69;5049654;28;20044;-75
2022/11/25 01:23:43;;;;;;;10.77;5.82;;;;;;;8.97;66.51;100262.47;5052164;28;20191;-75
2022/11/25 01:26:11;;;;;;;12.07;6.18;;;;;;;8.91;66.47;100255.78;5051329;28;20036;-75
2022/11/25 01:28:37;;;;;;;11.82;5.80;;;;;;;8.93;66.38;100250.31;5051550;28;20028;-75
2022/11/25 01:31:05;;;;;;;7.72;4.85;;;;;;;8.81;67.38;100272.75;5051166;28;20025;-75
2022/11/25 01:33:32;;;;;;;9.35;5.55;;;;;;;8.89;67.12;100267.63;5051445;28;20032;-75
2022/11/25 01:36:09;;;;;;;8.25;6.07;;;;;;;8.93;67.77;100272.59;5051121;28;20070;-75
2022/11/25 01:38:35;;;;;;;8.98;5.97;;;;;;;8.94;67.14;100279.66;5050916;28;20039;-76
2022/11/25 01:41:04;;;;;;;7.57;5.20;;;;;;;8.90;67.27;100254.06;5051251;28;20025;-75
2022/11/25 01:43:30;;;;;;;9.85;5.65;;;;;;;8.97;67.15;100279.44;5051130;28;20048;-75
2022/11/25 01:46:22;;;;;;;12.52;6.10;;;;;;;8.98;66.62;100261.50;5051246;28;20064;-75
2022/11/25 01:48:48;;;;;;;;;;;;;;;9.08;66.95;100274.03;5051913;28;20041;-74
2022/11/25 01:51:22;;;;;;;12.77;6.07;;;;;;;9.07;67.01;100274.19;5051314;28;19943;-74
2022/11/25 01:53:48;;;;;;;10.20;5.32;;;;;;;9.13;67.49;100276.38;5054986;28;20260;-76
2022/11/25 01:56:14;;;;;;;9.48;5.63;;;;;;;9.21;66.67;100272.06;5054830;28;20108;-76
2022/11/25 01:58:42;;;;;;;14.55;6.15;;;;;;;9.25;66.43;100276.22;5051971;28;20069;-76
2022/11/25 02:01:07;;;;;;;7.28;5.50;;;;;;;9.20;66.64;100269.53;5051215;28;20099;-76
2022/11/25 02:03:41;;;;;;;9.63;5.45;;;;;;;9.26;66.52;100274.41;5051263;28;20044;-76
2022/11/25 02:06:22;;;;;;;10.38;5.70;;;;;;;9.26;66.01;100269.03;5051332;28;20337;-76
2022/11/25 02:08:51;;;;;;;11.23;5.65;;;;;;;9.27;65.81;100276.94;5050745;28;20033;-75
2022/11/25 02:11:19;;;;;;;9.43;5.22;;;;;;;9.22;66.52;100278.28;5051571;28;20388;-76
2022/11/25 02:13:47;;;;;;;8.55;6.05;;;;;;;9.23;66.25;100277.34;5051643;28;20029;-75
2022/11/25 02:16:13;;;;;;;7.30;5.38;;;;;;;9.27;66.37;100286.81;5040748;28;20029;-75
2022/11/25 02:18:39;;;;;;;8.43;5.53;;;;;;;9.18;66.33;100277.69;5045617;28;20048;-75
2022/11/25 02:21:05;;;;;;;8.88;5.43;;;;;;;9.21;66.82;100290.00;5035102;28;20026;-75
2022/11/25 02:23:39;;;;;;;10.68;6.05;;;;;;;9.16;66.48;100273.44;5034759;28;20564;-76
2022/11/25 02:26:04;;;;;;;8.20;5.25;;;;;;;9.27;66.52;100292.19;5033575;28;20021;-76
2022/11/25 02:28:32;;;;;;;9.18;6.07;;;;;;;9.24;66.45;100287.91;5033871;28;20095;-78
2022/11/25 02:30:58;;;;;;;9.30;5.82;;;;;;;9.20;66.24;100283.78;5033513;28;20034;-75
2022/11/25 02:33:24;;;;;;;9.05;5.95;;;;;;;9.12;66.83;100293.44;5036761;28;20030;-76
2022/11/25 02:35:58;;;;;;;6.35;4.78;;;;;;;9.16;66.86;100273.44;5033304;28;20036;-76
2022/11/25 02:38:44;;;;;;;8.98;5.57;;;;;;;9.25;66.51;100284.28;5030677;28;20083;-75
2022/11/25 02:41:12;;;;;;;7.88;5.88;;;;;;;9.19;66.83;100289.28;5030964;28;20029;-75
2022/11/25 02:43:38;;;;;;;8.05;5.72;;;;;;;9.20;66.68;100275.72;5030279;28;20079;-75
2022/11/25 02:46:05;;;;;;;11.80;6.15;;;;;;;9.28;66.60;100285.84;5030626;28;20025;-75
2022/11/25 02:48:33;;;;;;;7.95;5.50;;;;;;;9.30;66.82;100284.75;5030117;28;20100;-75
2022/11/25 02:50:59;;;;;;;9.05;5.43;;;;;;;9.30;66.29;100270.47;5029787;28;20033;-75
2022/11/25 02:53:24;;;;;;;7.55;5.32;;;;;;;9.24;66.70;100287.91;5030674;28;20033;-75
2022/11/25 02:55:50;;;;;;;8.77;5.60;;;;;;;9.32;66.37;100287.31;5031365;28;20028;-76
2022/11/25 02:58:17;;;;;;;8.13;5.47;;;;;;;9.27;66.53;100282.31;5033446;28;20033;-75
2022/11/25 03:00:43;;;;;;;12.20;6.00;;;;;;;9.31;66.51;100282.91;5034420;28;20108;-76
2022/11/25 03:03:09;;;;;;;11.45;5.90;;;;;;;9.35;66.93;100288.88;5034719;28;20469;-75
2022/11/25 03:05:34;;;;;;;11.30;5.97;;;;;;;9.22;66.23;100256.84;5032441;28;20048;-74
2022/11/25 03:08:00;;;;;;;8.95;5.95;;;;;;;9.51;65.73;100286.66;5030395;28;20037;-75
2022/11/25 03:10:26;;;;;;;11.20;6.70;;;;;;;9.36;66.11;100264.59;5030131;28;20037;-75
2022/11/25 03:12:52;;;;;;;13.43;6.32;;;;;;;9.48;65.98;100290.44;5030061;28;20484;-75
2022/11/25 03:15:18;;;;;;;12.95;6.35;;;;;;;9.39;65.82;100285.81;5029753;28;20028;-75
2022/11/25 03:17:43;;;;;;;10.52;5.85;;;;;;;9.36;66.00;100291.44;5031394;28;20029;-75
2022/11/25 03:20:11;;;;;;;10.43;6.45;;;;;;;9.41;65.83;100296.44;5035818;28;20037;-74
2022/11/25 03:22:37;;;;;;;9.70;5.75;;;;;;;9.41;66.10;100308.03;5029738;28;20120;-75
2022/11/25 03:25:02;;;;;;;9.60;5.47;;;;;;;9.24;65.77;100287.06;5029989;28;20041;-75
2022/11/25 03:27:28;;;;;;;10.32;5.68;;;;;;;9.29;66.55;100303.66;5033969;28;20397;-76
2022/11/25 03:29:53;;;;;;;9.32;5.55;;;;;;;9.36;66.45;100304.84;5040258;28;20057;-76
2022/11/25 03:32:19;;;;;;;8.23;5.72;;;;;;;9.30;66.44;100305.34;5038757;28;20049;-76
2022/11/25 03:34:44;;;;;;;14.00;6.40;;;;;;;9.25;66.59;100284.28;5030475;28;20052;-76
2022/11/25 03:37:09;;;;;;;6.93;5.03;;;;;;;9.31;66.42;100299.00;5030285;28;20087;-74
2022/11/25 03:39:35;;;;;;;8.25;5.57;;;;;;;9.24;66.40;100285.25;5029874;28;20057;-75
2022/11/25 03:42:00;;;;;;;8.65;5.75;;;;;;;9.24;66.33;100308.53;5030218;28;20029;-76
2022/11/25 03:44:26;;;;;;;8.85;6.00;;;;;;;9.28;66.73;100302.81;5030053;28;20032;-76
2022/11/25 03:46:51;;;;;;;11.23;6.55;;;;;;;9.24;66.72;100301.34;5029834;28;20072;-77
2022/11/25 03:49:17;;;;;;;7.78;5.65;;;;;;;8.66;67.03;100226.53;5029627;28;20057;-75
2022/11/25 03:51:43;;;;;;;10.55;6.82;;;;;;;8.83;67.07;100268.09;5029620;28;20036;-75
2022/11/25 03:54:08;;;;;;;15.38;5.68;;;;;;;8.94;67.59;100300.28;5029797;28;20029;-75
2022/11/25 03:56:34;;;;;;;9.65;6.03;;;;;;;8.84;67.98;100313.56;5029131;28;20021;-75
2022/11/25 03:58:59;;;;;;;9.75;5.85;;;;;;;8.77;67.97;100307.81;5029334;28;20029;-76
2022/11/25 04:01:24;;;;;;;11.98;6.13;;;;;;;8.77;68.31;100307.81;5030044;28;20041;-75
2022/11/25 04:03:50;;;;;;;13.40;7.32;;;;;;;8.79;68.42;100317.56;5033779;28;20072;-77
2022/11/25 04:06:18;;;;;;;14.20;6.47;;;;;;;8.87;68.67;100317.84;5037705;28;20034;-75
2022/11/25 04:08:44;;;;;;;10.27;7.10;;;;;;;8.90;68.46;100328.31;5036440;28;20041;-75
2022/11/25 04:11:10;;;;;;;26.10;6.75;;;;;;;8.99;68.36;100335.66;5035366;28;20041;-75
2022/11/25 04:13:35;;;;;;;8.02;5.70;;;;;;;9.03;68.45;100331.72;5035397;28;20099;-75
2022/11/25 04:16:01;;;;;;;11.23;6.50;;;;;;;9.08;67.93;100329.53;5033935;28;20026;-76
2022/11/25 04:18:26;;;;;;;14.35;6.13;;;;;;;9.07;67.96;100334.06;5033966;28;20044;-76
2022/11/25 04:20:52;;;;;;;11.50;6.53;;;;;;;9.11;67.81;100335.50;5033464;28;20560;-75
2022/11/25 04:23:17;;;;;;;14.07;7.45;;;;;;;8.92;67.72;100302.22;5032882;28;20116;-75
2022/11/25 04:25:42;;;;;;;8.70;5.68;;;;;;;9.00;68.00;100337.31;5032944;28;20021;-75
2022/11/25 04:28:08;;;;;;;12.30;6.57;;;;;;;8.89;68.67;100329.28;5033061;28;20414;-76
2022/11/25 04:30:33;;;;;;;16.73;6.88;;;;;;;8.84;68.99;100331.50;5032873;28;20030;-76
2022/11/25 04:33:00;;;;;;;10.50;6.65;;;;;;;8.81;69.40;100318.31;5030807;28;20053;-75
2022/11/25 04:35:25;;;;;;;11.85;6.68;;;;;;;8.82;70.01;100325.38;5040284;28;20029;-75
2022/11/25 04:37:50;;;;;;;19.67;6.53;;;;;;;8.82;70.09;100326.22;5039326;28;20030;-75
2022/11/25 04:40:16;;;;;;;12.45;6.80;;;;;;;8.77;69.81;100323.91;5035596;28;20032;-74
2022/11/25 04:42:41;;;;;;;13.27;7.97;;;;;;;8.66;70.52;100318.53;5036194;28;20034;-76
2022/11/25 04:45:16;;;;;;;12.82;8.02;;;;;;;8.61;70.87;100328.78;5033108;28;20496;-75
2022/11/25 04:47:43;;;;;;;9.15;6.57;;;;;;;8.54;71.05;100324.84;5032765;28;20051;-75
2022/11/25 04:50:17;;;;;;;14.45;7.57;;;;;;;8.59;71.33;100330.72;5030223;28;20475;-77
2022/11/25 04:52:43;;;;;;;20.85;8.38;;;;;;;8.52;71.65;100326.81;5032681;28;20037;-77
2022/11/25 04:55:08;;;;;;;13.65;7.13;;;;;;;8.47;71.57;100328.16;5033159;28;20376;-74
2022/11/25 04:57:34;;;;;;;14.35;7.35;;;;;;;8.64;71.52;100350.00;5033008;28;20496;-75
2022/11/25 04:59:59;;;;;;;12.13;8.00;;;;;;;8.81;71.04;100364.75;5033092;28;20033;-75
2022/11/25 05:02:26;;;;;;;11.80;7.30;;;;;;;8.80;71.34;100365.72;5033131;28;20500;-76
2022/11/25 05:04:55;;;;;;;14.50;9.13;;;;;;;8.86;71.12;100383.16;5032598;28;20558;-75
2022/11/25 05:07:22;;;;;;;12.20;8.23;;;;;;;8.90;70.85;100390.84;5051772;28;20059;-75
2022/11/25 05:09:48;;;;;;;16.95;8.90;;;;;;;8.87;71.01;100395.63;5052803;28;20481;-75
2022/11/25 05:12:19;;;;;;;24.05;8.98;;;;;;;8.92;70.99;100393.41;5052410;28;20031;-76
2022/11/25 05:14:45;;;;;;;11.90;8.40;;;;;;;8.82;71.39;100360.22;5052420;28;20032;-76
2022/11/25 05:17:17;;;;;;;18.50;9.13;;;;;;;9.07;71.18;100402.94;5051579;28;20021;-75
2022/11/25 05:19:44;;;;;;;17.90;9.00;;;;;;;9.10;70.70;100414.28;5051691;28;20025;-74
2022/11/25 05:22:15;;;;;;;18.95;9.07;;;;;;;9.08;70.77;100410.84;5051609;28;20500;-76
2022/11/25 05:24:41;;;;;;;25.33;9.95;;;;;;;8.91;70.83;100399.75;5051722;28;20133;-77
2022/11/25 05:27:06;;;;;;;22.58;14.02;;;;;;;9.10;70.78;100426.84;5052203;28;20063;-76
2022/11/25 05:29:32;;;;;;;23.20;11.65;;;;;;;9.17;70.72;100441.50;5051268;28;20159;-76
2022/11/25 05:31:57;;;;;;;23.80;9.50;;;;;;;9.07;70.77;100414.53;5051615;28;20021;-77
2022/11/25 05:34:23;;;;;;;22.02;11.82;;;;;;;9.34;70.44;100448.19;5052077;28;20025;-76
2022/11/25 05:36:48;;;;;;;17.77;10.50;;;;;;;9.32;70.28;100451.03;5051545;28;20025;-76
2022/11/25 05:39:14;;;;;;;19.02;9.93;;;;;;;9.37;70.18;100451.50;5051098;28;20029;-74
2022/11/25 05:41:39;;;;;;;20.63;11.00;;;;;;;9.44;70.25;100468.84;5054403;28;20162;-75
2022/11/25 05:44:04;;;;;;;19.27;11.15;;;;;;;9.43;70.36;100467.13;5057368;28;20041;-76
2022/11/25 05:46:31;;;;;;;20.23;12.13;;;;;;;9.46;70.23;100469.56;5057773;28;20127;-75
2022/11/25 05:48:56;;;;;;;22.48;12.02;;;;;;;9.52;70.38;100466.38;5051208;28;20045;-75
2022/11/25 05:51:23;;;;;;;22.23;10.63;;;;;;;9.33;69.89;100436.59;5050806;28;20052;-75
2022/11/25 05:53:49;;;;;;;21.77;10.98;;;;;;;9.50;69.98;100480.91;5065102;28;20095;-75
2022/11/25 05:56:15;;;;;;;23.25;10.85;;;;;;;9.35;70.27;100453.47;5050658;28;20047;-75
2022/11/25 05:58:40;;;;;;;21.90;12.02;;;;;;;9.50;70.38;100481.78;5048151;28;20480;-76
2022/11/25 06:01:07;;;;;;;17.60;10.27;;;;;;;9.55;70.35;100490.31;5050278;28;20017;-75
2022/11/25 06:03:33;;;;;;;22.35;11.63;;;;;;;9.57;70.27;100499.06;5050529;28;20033;-75
2022/11/25 06:05:59;;;;;;;32.53;13.07;;;;;;;9.33;70.66;100460.75;5051247;28;20465;-76
2022/11/25 06:08:26;;;;;;;20.75;13.40;;;;;;;9.42;70.85;100489.56;5054049;28;20021;-75
2022/11/25 06:10:51;;;;;;;28.70;13.90;;;;;;;9.59;70.81;100518.63;5050489;28;20026;-76
2022/11/25 06:13:18;;;;;;;32.90;16.80;;;;;;;9.65;70.81;100522.66;5050427;28;20083;-74
2022/11/25 06:15:44;;;;;;;24.38;13.77;;;;;;;9.69;70.76;100527.63;5050776;28;20056;-75
2022/11/25 06:18:11;;;;;;;33.95;14.75;;;;;;;9.75;70.73;100534.38;5050542;28;20116;-76
2022/11/25 06:20:38;;;;;;;39.58;23.52;;;;;;;9.88;70.53;100534.25;5050089;28;20025;-76
2022/11/25 06:23:04;;;;;;;28.15;15.63;;;;;;;9.98;69.99;100536.06;5049970;28;20104;-76
2022/11/25 06:25:30;;;;;;;30.80;18.23;;;;;;;10.01;69.75;100543.03;5050216;28;20028;-74
2022/11/25 06:27:55;;;;;;;26.48;15.73;;;;;;;9.86;69.74;100523.63;5050607;28;20032;-75
2022/11/25 06:30:21;;;;;;;32.25;14.23;;;;;;;9.84;70.03;100533.66;5050237;28;20404;-74
2022/11/25 06:32:47;;;;;;;30.63;17.08;;;;;;;9.85;70.24;100525.44;5050166;28;20060;-74
2022/11/25 06:35:12;;;;;;;27.70;16.55;;;;;;;9.81;70.49;100534.72;5049837;28;20562;-76
2022/11/25 06:37:38;;;;;;;33.60;17.45;;;;;;;9.80;70.46;100538.41;5049717;28;20024;-75
2022/11/25 06:40:04;;;;;;;39.20;20.02;;;;;;;9.71;70.65;100539.13;5050270;28;20033;-76
2022/11/25 06:42:30;;;;;;;34.13;17.52;;;;;;;9.54;71.08;100515.44;5049639;28;20159;-75
2022/11/25 06:44:55;;;;;;;31.20;15.80;;;;;;;9.66;71.38;100545.84;5050021;28;20107;-76
2022/11/25 06:47:21;;;;;;;32.67;16.98;;;;;;;9.63;71.79;100557.66;5049805;28;20040;-75
2022/11/25 06:49:46;;;;;;;39.70;19.88;;;;;;;9.61;71.94;100556.94;5052533;28;20057;-75
2022/11/25 06:52:12;;;;;;;33.00;17.42;;;;;;;9.56;72.17;100553.78;5048711;28;20124;-75
2022/11/25 06:54:40;;;;;;;33.45;17.58;;;;;;;9.57;72.63;100552.78;5050802;28;20148;-75
2022/11/25 06:57:07;;;;;;;38.90;17.30;;;;;;;9.56;72.43;100551.09;5050324;28;20071;-75
2022/11/25 06:59:32;;;;;;;42.47;16.88;;;;;;;9.63;72.58;100552.28;5049480;28;20056;-77
2022/11/25 07:01:58;;;;;;;33.60;17.85;;;;;;;9.58;72.67;100543.75;5049414;28;20467;-76
2022/11/25 07:04:23;;;;;;;31.33;16.60;;;;;;;9.39;72.40;100511.25;5049969;28;20089;-75
2022/11/25 07:06:49;;;;;;;33.85;16.88;;;;;;;9.46;71.96;100523.25;5052170;28;20107;-75
2022/11/25 07:09:14;;;;;;;34.50;18.52;;;;;;;9.67;72.22;100564.50;5053725;28;20041;-74
2022/11/25 07:11:40;;;;;;;56.22;19.60;;;;;;;9.68;72.43;100560.88;5052613;28;20025;-75
2022/11/25 07:14:09;;;;;;;32.03;16.42;;;;;;;9.76;72.18;100563.78;5052093;28;20032;-76
2022/11/25 07:16:37;;;;;;;29.88;16.35;;;;;;;9.82;72.07;100552.56;5047076;28;20051;-76
2022/11/25 07:19:02;;;;;;;33.58;15.93;;;;;;;9.67;71.63;100531.44;5049566;28;20025;-75
2022/11/25 07:21:29;;;;;;;37.08;17.50;;;;;;;9.82;71.67;100555.25;5049203;28;20503;-74
2022/11/25 07:23:57;;;;;;;35.65;17.98;;;;;;;9.81;71.53;100550.00;5049744;28;20037;-75
2022/11/25 07:26:26;;;;;;;33.10;15.15;;;;;;;9.56;71.95;100536.81;5049393;28;20174;-76
2022/11/25 07:28:53;;;;;;;30.75;15.55;;;;;;;9.66;71.84;100557.41;5049723;28;20441;-75
2022/11/25 07:31:24;;;;;;;28.80;15.50;;;;;;;9.57;72.07;100527.78;5055847;28;20040;-74
2022/11/25 07:33:52;;;;;;;33.80;16.08;;;;;;;9.76;72.00;100568.28;5049843;28;20112;-74
2022/11/25 07:36:17;;;;;;;28.52;15.57;;;;;;;9.75;72.32;100578.19;5050333;28;20028;-74
2022/11/25 07:38:43;;;;;;;29.33;14.98;;;;;;;9.78;72.05;100569.88;5053516;28;20025;-76
2022/11/25 07:41:14;;;;;;;38.35;15.68;;;;;;;9.87;71.78;100578.22;5053253;28;20021;-74
2022/11/25 07:43:42;;;;;;;30.48;15.88;;;;;;;9.79;71.50;100552.81;5053004;28;20059;-74
2022/11/25 07:46:18;;;;;;;36.88;16.90;;;;;;;9.99;71.45;100575.41;5052069;28;20056;-75
2022/11/25 07:48:44;;;;;;;39.45;16.20;;;;;;;9.97;71.17;100568.44;5051673;28;20132;-74
2022/11/25 07:51:20;;;;;;;37.10;19.63;;;;;;;10.06;71.24;100581.16;5053314;28;20072;-76
2022/11/25 07:53:46;;;;;;;37.08;19.83;;;;;;;10.05;70.93;100587.50;5053134;28;20086;-75
2022/11/25 07:56:13;;;;;;;33.33;19.02;;;;;;;10.12;71.07;100599.47;5056882;28;20047;-76
2022/11/25 07:58:39;;;;;;;28.08;16.48;;;;;;;10.03;70.97;100589.44;5057251;28;20111;-77
2022/11/25 08:01:06;;;;;;;35.80;16.30;;;;;;;10.05;70.87;100592.88;5051025;28;20641;-76
2022/11/25 08:03:33;;;;;;;39.85;17.80;;;;;;;10.10;70.92;100598.72;5050574;28;20036;-76
2022/11/25 08:06:07;;;;;;;28.40;15.65;;;;;;;10.14;70.96;100594.84;5052637;28;20176;-76
2022/11/25 08:08:34;;;;;;;31.98;17.95;;;;;;;9.97;70.84;100553.16;5053028;28;20500;-76
2022/11/25 08:11:00;;;;;;;27.95;16.23;;;;;;;10.24;71.16;100599.34;5050884;28;20083;-74
2022/11/25 08:13:26;;;;;;;39.05;16.17;;;;;;;10.18;70.82;100578.34;5050163;28;20056;-75
2022/11/25 08:15:51;;;;;;;29.83;16.92;;;;;;;10.29;70.58;100604.38;5051645;28;20064;-75
2022/11/25 08:18:17;;;;;;;28.75;16.83;;;;;;;10.29;70.45;100607.06;5034772;28;20033;-75
2022/11/25 08:20:43;;;;;;;34.65;17.17;;;;;;;10.28;70.41;100587.38;5050074;28;20043;-74
2022/11/25 08:23:08;;;;;;;39.22;17.15;;;;;;;10.33;70.08;100595.94;5050133;28;20117;-74
2022/11/25 08:25:41;;;;;;;34.85;16.98;;;;;;;10.42;70.50;100596.16;5016437;28;20453;-76
2022/11/25 08:28:07;;;;;;;33.38;15.18;;;;;;;10.49;69.90;100606.28;5049987;28;20546;-75
2022/11/25 08:30:33;;;;;;;27.45;16.52;;;;;;;10.43;69.68;100611.34;5049731;28;20094;-76
2022/11/25 08:32:59;;;;;;;31.02;15.75;;;;;;;10.44;69.79;100608.50;5051903;28;20045;-76
2022/11/25 08:35:25;;;;;;;31.55;16.00;;;;;;;10.36;70.10;100595.69;5052106;28;20090;-75
2022/11/25 08:37:50;;;;;;;29.48;16.63;;;;;;;10.45;70.24;100603.97;5052096;28;20435;-74
2022/11/25 08:40:16;;;;;;;30.70;16.67;;;;;;;10.48;70.18;100609.97;5052011;28;20025;-74
2022/11/25 08:42:41;;;;;;;28.42;17.50;;;;;;;10.52;69.63;100618.66;5051884;28;20463;-76
2022/11/25 08:45:10;;;;;;;32.45;17.50;;;;;;;10.51;68.97;100604.34;5052204;28;20107;-75
2022/11/25 08:47:36;;;;;;;31.90;20.30;;;;;;;10.27;68.65;100580.28;5051058;28;20043;-75
2022/11/25 08:50:06;;;;;;;29.52;17.08;;;;;;;10.36;69.00;100594.84;5051840;28;20400;-73
2022/11/25 08:52:31;;;;;;;30.77;17.77;;;;;;;10.39;68.97;100599.97;5051660;28;20465;-76
2022/11/25 08:54:57;;;;;;;31.50;18.20;;;;;;;10.30;68.84;100611.47;5056693;28;20029;-75
2022/11/25 08:57:22;;;;;;;26.15;16.88;;;;;;;10.23;69.13;100594.09;5052074;28;20456;-76
2022/11/25 08:59:48;;;;;;;24.67;15.55;;;;;;;10.27;69.54;100617.09;5051954;28;20029;-74
2022/11/25 09:02:15;;;;;;;33.03;18.08;;;;;;;10.29;69.63;100615.13;5054390;28;20025;-76
2022/11/25 09:04:40;;;;;;;31.42;17.23;;;;;;;10.30;69.92;100617.66;5059237;28;20037;-76
2022/11/25 09:07:05;;;;;;;37.75;18.75;;;;;;;10.30;69.86;100606.91;5053736;28;20036;-76
2022/11/25 09:09:31;;;;;;;36.63;19.45;;;;;;;10.47;69.90;100627.06;5051731;28;20025;-75
2022/11/25 09:11:56;;;;;;;27.40;17.65;;;;;;;10.26;69.00;100585.78;5051426;28;20024;-74
2022/11/25 09:14:22;;;;;;;34.08;19.55;;;;;;;10.48;68.59;100612.66;5051647;28;20029;-76
2022/11/25 09:16:48;;;;;;;39.47;22.70;;;;;;;10.51;69.26;100620.47;5051467;28;20025;-75
2022/11/25 09:19:13;;;;;;;32.22;20.02;;;;;;;10.61;68.86;100621.41;5051534;28;20057;-76
2022/11/25 09:21:39;;;;;;;39.67;20.33;;;;;;;10.69;67.85;100634.25;5051523;28;20127;-74
2022/11/25 09:24:04;;;;;;;31.27;18.08;;;;;;;10.82;67.36;100634.97;5051156;28;20079;-76
2022/11/25 09:26:38;;;;;;;29.23;19.13;;;;;;;10.67;66.78;100599.41;5051337;28;20044;-76
2022/11/25 09:29:04;;;;;;;36.20;18.23;;;;;;;11.11;66.79;100635.22;5051192;28;20025;-75
2022/11/25 09:31:29;;;;;;;35.67;19.45;;;;;;;11.27;65.63;100628.44;5050754;28;20151;-76
2022/11/25 09:33:55;;;;;;;32.65;18.15;;;;;;;11.39;65.47;100645.41;5051228;28;20484;-75
2022/11/25 09:36:22;;;;;;;37.13;18.00;;;;;;;11.53;64.41;100631.59;5050608;28;20546;-75
2022/11/25 09:38:48;;;;;;;31.63;16.40;;;;;;;11.41;63.71;100603.03;5050668;28;20025;-74
2022/11/25 09:46:40;;;;;;;35.70;19.70;;;;;;;11.62;63.62;100630.81;5053691;28;20033;-74
2022/11/25 09:47:41;;;;;;;32.03;17.20;;;;;;;11.36;62.92;100630.34;5050953;28;20127;-76
2022/11/25 09:50:15;;;;;;;49.67;23.55;;;;;;;11.26;64.00;100642.88;5050870;28;20110;-76
2022/11/25 09:52:43;;;;;;;61.88;25.15;;;;;;;10.99;64.29;100609.34;5050427;28;20029;-75
2022/11/25 09:55:23;;;;;;;42.35;20.88;;;;;;;11.05;64.22;100635.75;5048382;28;20048;-75
2022/11/25 09:58:02;;;;;;;34.85;19.10;;;;;;;11.14;64.86;100643.03;5050338;28;20511;-76
2022/11/25 10:00:41;;;;;;;53.65;24.75;;;;;;;11.26;63.95;100642.88;5050237;28;20025;-74
2022/11/25 10:03:22;;;;;;;40.40;19.92;;;;;;;11.24;64.14;100641.31;5050589;28;20977;-75
2022/11/25 10:06:03;;;;;;;34.33;17.20;;;;;;;11.21;64.16;100642.41;5052005;28;20507;-75
2022/11/25 10:08:41;;;;;;;42.65;21.50;;;;;;;11.13;64.33;100649.44;5051841;28;20112;-75
2022/11/25 10:11:16;;;;;;;31.25;17.30;;;;;;;10.96;63.19;100645.44;5059136;28;20024;-76
2022/11/25 10:13:58;;;;;;;32.13;16.30;;;;;;;10.87;63.97;100660.50;5058052;28;20499;-76
2022/11/25 10:16:44;;;;;;;27.20;15.40;;;;;;;10.79;64.22;100662.94;5050652;28;20048;-76
2022/11/25 10:19:40;;;;;;;34.38;18.00;;;;;;;10.77;65.02;100653.31;5053493;28;20037;-76
2022/11/25 10:22:15;;;;;;;26.23;15.45;;;;;;;10.75;65.24;100656.13;5050735;28;20051;-76
2022/11/25 10:24:41;;;;;;;23.67;15.05;;;;;;;10.68;64.88;100643.28;5050246;28;20037;-77
2022/11/25 10:27:16;;;;;;;32.80;17.05;;;;;;;10.70;65.33;100646.75;5050398;28;20553;-75
2022/11/25 10:29:44;;;;;;;32.67;19.10;;;;;;;10.37;65.45;100597.38;5049990;28;20025;-75
2022/11/25 10:32:19;;;;;;;47.28;18.23;;;;;;;10.83;65.56;100653.66;5050080;28;20032;-76
2022/11/25 10:34:49;;;;;;;28.15;14.77;;;;;;;10.87;65.82;100654.28;5049876;28;20353;-76
2022/11/25 10:37:30;;;;;;;26.15;15.00;;;;;;;10.86;65.03;100645.34;5049915;28;20024;-76
2022/11/25 10:39:56;;;;;;;29.45;17.17;;;;;;;10.72;65.16;100624.09;5050229;28;20079;-76
2022/11/25 10:42:24;;;;;;;38.83;19.40;;;;;;;10.87;64.87;100641.69;5050757;28;20021;-74
2022/11/25 10:44:50;;;;;;;37.58;19.40;;;;;;;11.12;64.63;100670.09;5064851;28;20042;-75
2022/11/25 10:47:46;;;;;;;39.25;19.85;;;;;;;11.13;64.82;100663.72;5050488;28;20118;-75
2022/11/25 10:50:50;;;;;;;38.17;19.33;;;;;;;11.15;64.26;100655.53;5051316;28;20488;-74
2022/11/25 10:53:21;;;;;;;31.23;16.63;;;;;;;11.02;64.32;100620.72;5051546;28;20040;-75
2022/11/25 10:56:02;;;;;;;32.03;19.50;;;;;;;11.28;64.46;100664.31;5050331;28;20032;-76
2022/11/25 10:58:32;;;;;;;32.05;16.05;;;;;;;11.42;63.83;100659.47;5050095;28;20476;-75
2022/11/25 11:01:04;;;;;;;26.98;16.67;;;;;;;11.51;63.95;100665.03;5050348;28;20180;-75
2022/11/25 11:03:30;;;;;;;31.75;14.63;;;;;;;11.44;62.83;100627.00;5049385;28;20021;-75
2022/11/25 11:05:55;;;;;;;25.60;15.40;;;;;;;11.77;62.99;100672.63;5049413;28;20075;-75
2022/11/25 11:08:39;;;;;;;45.72;16.63;;;;;;;11.92;62.35;100665.97;5047155;28;20063;-75
2022/11/25 11:11:20;;;;;;;38.22;21.35;;;;;;;11.87;61.20;100678.09;5049400;28;20326;-76
2022/11/25 11:13:47;;;;;;;25.35;14.45;;;;;;;11.66;60.22;100648.44;5049801;28;20060;-75
2022/11/25 11:16:25;;;;;;;20.02;13.13;;;;;;;11.90;60.17;100667.06;5051026;28;20040;-76
2022/11/25 11:18:50;;;;;;;45.97;20.15;;;;;;;11.58;60.44;100639.31;5052474;28;20079;-77
2022/11/25 11:21:28;;;;;;;34.33;15.40;;;;;;;11.88;59.74;100680.69;5054075;28;20028;-75
2022/11/25 11:23:54;;;;;;;27.60;14.80;;;;;;;11.77;59.67;100679.91;5049504;28;20067;-75
2022/11/25 11:26:27;;;;;;;19.30;13.02;;;;;;;11.56;60.03;100655.59;5049255;28;20025;-74
2022/11/25 11:28:58;;;;;;;21.35;12.02;;;;;;;11.46;59.72;100681.59;5049472;28;20104;-74
2022/11/25 11:31:53;;;;;;;22.23;12.55;;;;;;;11.35;61.00;100687.03;5049563;28;20409;-75
2022/11/25 11:34:57;;;;;;;22.45;11.82;;;;;;;11.25;60.94;100686.09;5007047;28;20485;-75